sensor_id;sensor_type;location;lat;lon;timestamp;temperature;humidity
4934;DHT22;2482;49.154;8.254;2023-02-28T00:01:32;-0.30;99.90
4934;DHT22;2482;49.154;8.254;2023-02-28T00:03:59;-0.60;99.90
4934;DHT22;2482;49.154;8.254;2023-02-28T00:06:27;-0.50;99.90
4934;DHT22;2482;49.154;8.254;2023-02-28T00:08:54;-0.40;99.90
4934;DHT22;2482;49.154;8.254;2023-02-28T00:11:22;-0.40;99.90
4934;DHT22;2482;49.154;8.254;2023-02-28T00:13:50;-0.40;99.90
4934;DHT22;2482;49.154;8.254;2023-02-28T00:16:20;-0.50;99.90
4934;DHT22;2482;49.154;8.254;2023-02-28T00:18:49;-0.40;99.90
4934;DHT22;2482;49.154;8.254;2023-02-28T00:21:17;-0.50;99.90
4934;DHT22;2482;49.154;8.254;2023-02-28T00:23:44;-0.40;99.90
4934;DHT22;2482;49.154;8.254;2023-02-28T00:26:11;-0.30;99.90
4934;DHT22;2482;49.154;8.254;2023-02-28T00:28:39;-0.30;99.90
4934;DHT22;2482;49.154;8.254;2023-02-28T00:31:05;-0.40;99.90
4934;DHT22;2482;49.154;8.254;2023-02-28T00:33:33;-0.40;99.90
4934;DHT22;2482;49.154;8.254;2023-02-28T00:36:08;-0.40;99.90
4934;DHT22;2482;49.154;8.254;2023-02-28T00:38:37;-0.50;99.90
4934;DHT22;2482;49.154;8.254;2023-02-28T00:41:05;-0.40;99.90
4934;DHT22;2482;49.154;8.254;2023-02-28T00:43:34;-0.50;99.90
4934;DHT22;2482;49.154;8.254;2023-02-28T00:46:04;-0.50;99.90
4934;DHT22;2482;49.154;8.254;2023-02-28T00:48:32;-0.60;99.90
4934;DHT22;2482;49.154;8.254;2023-02-28T00:50:59;-0.70;99.90
4934;DHT22;2482;49.154;8.254;2023-02-28T00:53:26;-0.60;99.90
4934;DHT22;2482;49.154;8.254;2023-02-28T00:55:53;-0.60;99.90
4934;DHT22;2482;49.154;8.254;2023-02-28T00:58:20;-0.50;99.90
4934;DHT22;2482;49.154;8.254;2023-02-28T01:00:47;-0.50;99.90
4934;DHT22;2482;49.154;8.254;2023-02-28T01:03:17;-0.50;99.90
4934;DHT22;2482;49.154;8.254;2023-02-28T01:05:45;-0.50;99.90
4934;DHT22;2482;49.154;8.254;2023-02-28T01:08:13;-0.50;99.90
4934;DHT22;2482;49.154;8.254;2023-02-28T01:10:41;-0.70;99.90
4934;DHT22;2482;49.154;8.254;2023-02-28T01:13:09;-0.70;99.90
4934;DHT22;2482;49.154;8.254;2023-02-28T01:15:45;-0.70;99.90
4934;DHT22;2482;49.154;8.254;2023-02-28T01:18:17;-0.70;99.90
4934;DHT22;2482;49.154;8.254;2023-02-28T01:20:44;-0.60;99.90
4934;DHT22;2482;49.154;8.254;2023-02-28T01:23:12;-0.70;99.90
4934;DHT22;2482;49.154;8.254;2023-02-28T01:25:39;-0.60;99.90
4934;DHT22;2482;49.154;8.254;2023-02-28T01:28:07;-0.60;99.90
4934;DHT22;2482;49.154;8.254;2023-02-28T01:30:34;-0.70;99.90
4934;DHT22;2482;49.154;8.254;2023-02-28T01:33:02;-0.70;99.90
4934;DHT22;2482;49.154;8.254;2023-02-28T01:35:32;-0.70;99.90
4934;DHT22;2482;49.154;8.254;2023-02-28T01:38:00;-0.90;99.90
4934;DHT22;2482;49.154;8.254;2023-02-28T01:40:46;-0.80;99.90
4934;DHT22;2482;49.154;8.254;2023-02-28T01:43:26;-1.00;99.90
4934;DHT22;2482;49.154;8.254;2023-02-28T01:45:55;-1.00;99.90
4934;DHT22;2482;49.154;8.254;2023-02-28T01:48:29;-1.00;99.90
4934;DHT22;2482;49.154;8.254;2023-02-28T01:51:07;-1.00;99.90
4934;DHT22;2482;49.154;8.254;2023-02-28T01:53:45;-1.10;99.90
4934;DHT22;2482;49.154;8.254;2023-02-28T01:56:22;-1.00;99.90
4934;DHT22;2482;49.154;8.254;2023-02-28T01:58:52;-1.30;99.90
4934;DHT22;2482;49.154;8.254;2023-02-28T02:01:23;-1.30;99.90
4934;DHT22;2482;49.154;8.254;2023-02-28T02:04:00;-1.10;99.90
4934;DHT22;2482;49.154;8.254;2023-02-28T02:06:42;-1.20;99.90
4934;DHT22;2482;49.154;8.254;2023-02-28T02:09:11;-1.30;99.90
4934;DHT22;2482;49.154;8.254;2023-02-28T02:11:41;-1.30;99.90
4934;DHT22;2482;49.154;8.254;2023-02-28T02:14:34;-1.40;99.90
4934;DHT22;2482;49.154;8.254;2023-02-28T02:20:32;-1.50;99.90
4934;DHT22;2482;49.154;8.254;2023-02-28T02:35:09;-1.50;99.90
4934;DHT22;2482;49.154;8.254;2023-02-28T02:44:13;-1.60;99.90
4934;DHT22;2482;49.154;8.254;2023-02-28T02:46:46;-1.60;99.90
4934;DHT22;2482;49.154;8.254;2023-02-28T02:49:25;-1.60;99.90
4934;DHT22;2482;49.154;8.254;2023-02-28T02:51:56;-1.60;99.90
4934;DHT22;2482;49.154;8.254;2023-02-28T02:54:28;-1.70;99.90
4934;DHT22;2482;49.154;8.254;2023-02-28T02:57:00;-1.80;99.90
4934;DHT22;2482;49.154;8.254;2023-02-28T02:59:30;-1.70;99.90
4934;DHT22;2482;49.154;8.254;2023-02-28T03:02:01;-1.70;99.90
4934;DHT22;2482;49.154;8.254;2023-02-28T03:04:36;-1.70;99.90
4934;DHT22;2482;49.154;8.254;2023-02-28T03:07:07;-1.80;99.90
4934;DHT22;2482;49.154;8.254;2023-02-28T03:09:35;-1.70;99.90
4934;DHT22;2482;49.154;8.254;2023-02-28T03:12:09;-1.90;99.90
4934;DHT22;2482;49.154;8.254;2023-02-28T03:24:56;-2.00;99.90
4934;DHT22;2482;49.154;8.254;2023-02-28T03:27:28;-1.90;99.90
4934;DHT22;2482;49.154;8.254;2023-02-28T03:33:01;-1.90;99.90
4934;DHT22;2482;49.154;8.254;2023-02-28T03:35:37;-1.90;99.90
4934;DHT22;2482;49.154;8.254;2023-02-28T03:41:19;-1.90;99.90
4934;DHT22;2482;49.154;8.254;2023-02-28T03:44:22;-1.90;99.90
4934;DHT22;2482;49.154;8.254;2023-02-28T03:47:02;-1.90;99.90
4934;DHT22;2482;49.154;8.254;2023-02-28T03:52:34;-1.90;99.90
4934;DHT22;2482;49.154;8.254;2023-02-28T03:55:07;-1.90;99.90
4934;DHT22;2482;49.154;8.254;2023-02-28T03:57:57;-2.00;99.90
4934;DHT22;2482;49.154;8.254;2023-02-28T04:00:35;-2.00;99.90
4934;DHT22;2482;49.154;8.254;2023-02-28T04:03:05;-2.10;99.90
4934;DHT22;2482;49.154;8.254;2023-02-28T04:05:33;-2.10;99.90
4934;DHT22;2482;49.154;8.254;2023-02-28T04:08:15;-2.10;99.90
4934;DHT22;2482;49.154;8.254;2023-02-28T04:10:45;-2.10;99.90
4934;DHT22;2482;49.154;8.254;2023-02-28T04:13:17;-2.20;99.90
4934;DHT22;2482;49.154;8.254;2023-02-28T04:15:44;-2.20;99.90
4934;DHT22;2482;49.154;8.254;2023-02-28T04:18:11;-2.30;99.90
4934;DHT22;2482;49.154;8.254;2023-02-28T04:20:38;-2.20;99.90
4934;DHT22;2482;49.154;8.254;2023-02-28T04:23:05;-2.10;99.90
4934;DHT22;2482;49.154;8.254;2023-02-28T04:25:32;-2.00;99.90
4934;DHT22;2482;49.154;8.254;2023-02-28T04:28:00;-2.00;99.90
4934;DHT22;2482;49.154;8.254;2023-02-28T04:30:27;-2.00;99.90
4934;DHT22;2482;49.154;8.254;2023-02-28T04:32:54;-1.90;99.90
4934;DHT22;2482;49.154;8.254;2023-02-28T04:35:21;-1.90;99.90
4934;DHT22;2482;49.154;8.254;2023-02-28T04:37:48;-1.90;99.90
4934;DHT22;2482;49.154;8.254;2023-02-28T04:40:15;-1.90;99.90
4934;DHT22;2482;49.154;8.254;2023-02-28T04:42:42;-1.90;99.90
4934;DHT22;2482;49.154;8.254;2023-02-28T04:45:09;-1.90;99.90
4934;DHT22;2482;49.154;8.254;2023-02-28T04:47:36;-1.90;99.90
4934;DHT22;2482;49.154;8.254;2023-02-28T04:50:04;-1.90;99.90
4934;DHT22;2482;49.154;8.254;2023-02-28T04:52:31;-1.90;99.90
4934;DHT22;2482;49.154;8.254;2023-02-28T04:54:58;-1.80;99.90
4934;DHT22;2482;49.154;8.254;2023-02-28T04:57:25;-1.80;99.90
4934;DHT22;2482;49.154;8.254;2023-02-28T04:59:52;-1.80;99.90
4934;DHT22;2482;49.154;8.254;2023-02-28T05:02:19;-1.80;99.90
4934;DHT22;2482;49.154;8.254;2023-02-28T05:04:47;-1.70;99.90
4934;DHT22;2482;49.154;8.254;2023-02-28T05:07:15;-1.70;99.90
4934;DHT22;2482;49.154;8.254;2023-02-28T05:09:42;-1.70;99.90
4934;DHT22;2482;49.154;8.254;2023-02-28T05:12:09;-1.70;99.90
4934;DHT22;2482;49.154;8.254;2023-02-28T05:14:36;-1.70;99.90
4934;DHT22;2482;49.154;8.254;2023-02-28T05:17:03;-1.60;99.90
4934;DHT22;2482;49.154;8.254;2023-02-28T05:19:30;-1.60;99.90
4934;DHT22;2482;49.154;8.254;2023-02-28T05:21:57;-1.50;99.90
4934;DHT22;2482;49.154;8.254;2023-02-28T05:24:24;-1.50;99.90
4934;DHT22;2482;49.154;8.254;2023-02-28T05:26:53;-1.60;99.90
4934;DHT22;2482;49.154;8.254;2023-02-28T05:29:21;-1.40;99.90
4934;DHT22;2482;49.154;8.254;2023-02-28T05:31:48;-1.40;99.90
4934;DHT22;2482;49.154;8.254;2023-02-28T05:34:15;-1.50;99.90
4934;DHT22;2482;49.154;8.254;2023-02-28T05:36:43;-1.40;99.90
4934;DHT22;2482;49.154;8.254;2023-02-28T05:39:10;-1.50;99.90
4934;DHT22;2482;49.154;8.254;2023-02-28T05:41:41;-1.60;99.90
4934;DHT22;2482;49.154;8.254;2023-02-28T05:44:08;-1.70;99.90
4934;DHT22;2482;49.154;8.254;2023-02-28T05:46:36;-1.80;99.90
4934;DHT22;2482;49.154;8.254;2023-02-28T05:49:03;-1.70;99.90
4934;DHT22;2482;49.154;8.254;2023-02-28T05:51:30;-1.70;99.90
4934;DHT22;2482;49.154;8.254;2023-02-28T05:54:01;-1.60;99.90
4934;DHT22;2482;49.154;8.254;2023-02-28T05:56:29;-1.60;99.90
4934;DHT22;2482;49.154;8.254;2023-02-28T05:58:56;-1.60;99.90
4934;DHT22;2482;49.154;8.254;2023-02-28T06:03:59;-1.60;99.90
4934;DHT22;2482;49.154;8.254;2023-02-28T06:06:27;-1.60;99.90
4934;DHT22;2482;49.154;8.254;2023-02-28T06:08:56;-1.40;99.90
4934;DHT22;2482;49.154;8.254;2023-02-28T06:11:23;-1.50;99.90
4934;DHT22;2482;49.154;8.254;2023-02-28T06:13:58;-1.50;99.90
4934;DHT22;2482;49.154;8.254;2023-02-28T06:16:28;-1.40;99.90
4934;DHT22;2482;49.154;8.254;2023-02-28T06:19:02;-1.50;99.90
4934;DHT22;2482;49.154;8.254;2023-02-28T06:21:30;-1.50;99.90
4934;DHT22;2482;49.154;8.254;2023-02-28T06:23:58;-1.40;99.90
4934;DHT22;2482;49.154;8.254;2023-02-28T06:26:25;-1.40;99.90
4934;DHT22;2482;49.154;8.254;2023-02-28T06:28:52;-1.40;99.90
4934;DHT22;2482;49.154;8.254;2023-02-28T06:31:20;-1.40;99.90
4934;DHT22;2482;49.154;8.254;2023-02-28T06:33:48;-1.30;99.90
4934;DHT22;2482;49.154;8.254;2023-02-28T06:36:17;-1.30;99.90
4934;DHT22;2482;49.154;8.254;2023-02-28T06:38:44;-1.30;99.90
4934;DHT22;2482;49.154;8.254;2023-02-28T06:41:11;-1.30;99.90
4934;DHT22;2482;49.154;8.254;2023-02-28T06:43:41;-1.20;99.90
4934;DHT22;2482;49.154;8.254;2023-02-28T06:46:11;-1.20;99.90
4934;DHT22;2482;49.154;8.254;2023-02-28T06:48:40;-1.20;99.90
4934;DHT22;2482;49.154;8.254;2023-02-28T06:51:14;-1.20;99.90
4934;DHT22;2482;49.154;8.254;2023-02-28T06:53:43;-1.10;99.90
4934;DHT22;2482;49.154;8.254;2023-02-28T06:56:12;-1.10;99.90
4934;DHT22;2482;49.154;8.254;2023-02-28T06:58:40;-1.00;99.90
4934;DHT22;2482;49.154;8.254;2023-02-28T07:01:08;-0.90;99.90
4934;DHT22;2482;49.154;8.254;2023-02-28T07:03:36;-0.90;99.90
4934;DHT22;2482;49.154;8.254;2023-02-28T07:06:04;-0.90;99.90
4934;DHT22;2482;49.154;8.254;2023-02-28T07:08:32;-0.90;99.90
4934;DHT22;2482;49.154;8.254;2023-02-28T07:11:00;-0.90;99.90
4934;DHT22;2482;49.154;8.254;2023-02-28T07:13:27;-1.00;99.90
4934;DHT22;2482;49.154;8.254;2023-02-28T07:16:00;-0.90;99.90
4934;DHT22;2482;49.154;8.254;2023-02-28T07:18:28;-0.90;99.90
4934;DHT22;2482;49.154;8.254;2023-02-28T07:20:56;-0.90;99.90
4934;DHT22;2482;49.154;8.254;2023-02-28T07:23:23;-0.90;99.90
4934;DHT22;2482;49.154;8.254;2023-02-28T07:25:51;-0.90;99.90
4934;DHT22;2482;49.154;8.254;2023-02-28T07:28:18;-0.70;99.90
4934;DHT22;2482;49.154;8.254;2023-02-28T07:30:45;-0.80;99.90
4934;DHT22;2482;49.154;8.254;2023-02-28T07:33:12;-0.80;99.90
4934;DHT22;2482;49.154;8.254;2023-02-28T07:35:39;-0.80;99.90
4934;DHT22;2482;49.154;8.254;2023-02-28T07:38:07;-0.60;99.90
4934;DHT22;2482;49.154;8.254;2023-02-28T07:40:36;-0.50;99.90
4934;DHT22;2482;49.154;8.254;2023-02-28T07:43:03;-0.50;99.90
4934;DHT22;2482;49.154;8.254;2023-02-28T07:45:31;-0.50;99.90
4934;DHT22;2482;49.154;8.254;2023-02-28T07:48:01;-0.40;99.90
4934;DHT22;2482;49.154;8.254;2023-02-28T07:50:28;-0.20;99.90
4934;DHT22;2482;49.154;8.254;2023-02-28T07:52:59;-0.10;99.90
4934;DHT22;2482;49.154;8.254;2023-02-28T07:55:26;0.10;99.90
4934;DHT22;2482;49.154;8.254;2023-02-28T07:57:54;0.20;99.90
4934;DHT22;2482;49.154;8.254;2023-02-28T08:00:21;0.10;99.90
4934;DHT22;2482;49.154;8.254;2023-02-28T08:02:48;0.20;99.90
4934;DHT22;2482;49.154;8.254;2023-02-28T08:05:16;0.30;99.90
4934;DHT22;2482;49.154;8.254;2023-02-28T08:07:46;0.30;99.90
4934;DHT22;2482;49.154;8.254;2023-02-28T08:10:14;0.30;99.90
4934;DHT22;2482;49.154;8.254;2023-02-28T08:12:41;0.20;99.90
4934;DHT22;2482;49.154;8.254;2023-02-28T08:15:08;0.30;99.90
4934;DHT22;2482;49.154;8.254;2023-02-28T08:17:35;0.40;99.90
4934;DHT22;2482;49.154;8.254;2023-02-28T08:20:02;0.30;99.90
4934;DHT22;2482;49.154;8.254;2023-02-28T08:22:30;0.30;99.90
4934;DHT22;2482;49.154;8.254;2023-02-28T08:24:57;0.40;99.90
4934;DHT22;2482;49.154;8.254;2023-02-28T08:27:24;0.50;99.90
4934;DHT22;2482;49.154;8.254;2023-02-28T08:29:51;0.60;99.90
4934;DHT22;2482;49.154;8.254;2023-02-28T08:32:18;0.50;99.90
4934;DHT22;2482;49.154;8.254;2023-02-28T08:34:55;0.50;99.90
4934;DHT22;2482;49.154;8.254;2023-02-28T08:37:22;0.50;99.90
4934;DHT22;2482;49.154;8.254;2023-02-28T08:39:49;0.60;99.90
4934;DHT22;2482;49.154;8.254;2023-02-28T08:42:19;0.70;99.90
4934;DHT22;2482;49.154;8.254;2023-02-28T08:44:46;1.00;99.90
4934;DHT22;2482;49.154;8.254;2023-02-28T08:47:13;1.10;99.90
4934;DHT22;2482;49.154;8.254;2023-02-28T08:49:41;1.20;99.90
4934;DHT22;2482;49.154;8.254;2023-02-28T08:52:08;1.10;99.90
4934;DHT22;2482;49.154;8.254;2023-02-28T08:54:35;1.20;99.90
4934;DHT22;2482;49.154;8.254;2023-02-28T08:57:03;1.30;99.90
4934;DHT22;2482;49.154;8.254;2023-02-28T08:59:30;1.40;99.90
4934;DHT22;2482;49.154;8.254;2023-02-28T09:01:57;1.40;99.90
4934;DHT22;2482;49.154;8.254;2023-02-28T09:04:24;1.50;99.90
4934;DHT22;2482;49.154;8.254;2023-02-28T09:06:51;1.40;99.90
4934;DHT22;2482;49.154;8.254;2023-02-28T09:09:19;1.50;99.90
4934;DHT22;2482;49.154;8.254;2023-02-28T09:11:45;1.50;99.90
4934;DHT22;2482;49.154;8.254;2023-02-28T09:14:13;1.40;99.90
4934;DHT22;2482;49.154;8.254;2023-02-28T09:16:40;1.50;99.90
4934;DHT22;2482;49.154;8.254;2023-02-28T09:19:11;1.50;99.90
4934;DHT22;2482;49.154;8.254;2023-02-28T09:21:38;1.70;99.90
4934;DHT22;2482;49.154;8.254;2023-02-28T09:24:06;1.90;99.90
4934;DHT22;2482;49.154;8.254;2023-02-28T09:26:33;1.90;99.90
4934;DHT22;2482;49.154;8.254;2023-02-28T09:29:12;2.20;99.90
4934;DHT22;2482;49.154;8.254;2023-02-28T09:31:41;2.40;99.90
4934;DHT22;2482;49.154;8.254;2023-02-28T09:34:08;2.20;99.90
4934;DHT22;2482;49.154;8.254;2023-02-28T09:36:35;2.20;99.90
4934;DHT22;2482;49.154;8.254;2023-02-28T09:39:11;2.30;99.90
4934;DHT22;2482;49.154;8.254;2023-02-28T09:41:44;2.30;99.90
4934;DHT22;2482;49.154;8.254;2023-02-28T09:44:30;2.50;99.90
4934;DHT22;2482;49.154;8.254;2023-02-28T09:47:27;2.30;99.90
4934;DHT22;2482;49.154;8.254;2023-02-28T09:49:58;2.20;99.90
4934;DHT22;2482;49.154;8.254;2023-02-28T09:52:31;2.30;99.90
4934;DHT22;2482;49.154;8.254;2023-02-28T09:58:27;2.30;99.90
4934;DHT22;2482;49.154;8.254;2023-02-28T10:01:06;2.60;99.90
4934;DHT22;2482;49.154;8.254;2023-02-28T10:03:45;2.80;99.90
4934;DHT22;2482;49.154;8.254;2023-02-28T10:06:18;2.60;99.90
4934;DHT22;2482;49.154;8.254;2023-02-28T10:09:03;2.70;99.90
4934;DHT22;2482;49.154;8.254;2023-02-28T10:11:37;2.90;99.90
4934;DHT22;2482;49.154;8.254;2023-02-28T10:14:11;3.10;99.90
4934;DHT22;2482;49.154;8.254;2023-02-28T10:16:45;3.00;99.90
4934;DHT22;2482;49.154;8.254;2023-02-28T10:20:19;2.80;99.90
4934;DHT22;2482;49.154;8.254;2023-02-28T10:22:39;2.90;99.90
4934;DHT22;2482;49.154;8.254;2023-02-28T10:25:37;3.20;99.90
4934;DHT22;2482;49.154;8.254;2023-02-28T10:30:36;3.00;99.90
4934;DHT22;2482;49.154;8.254;2023-02-28T10:33:30;2.80;99.90
4934;DHT22;2482;49.154;8.254;2023-02-28T10:35:59;2.70;99.90
4934;DHT22;2482;49.154;8.254;2023-02-28T10:38:34;2.50;99.90
4934;DHT22;2482;49.154;8.254;2023-02-28T10:41:27;2.50;99.90
4934;DHT22;2482;49.154;8.254;2023-02-28T10:44:20;2.60;99.90
4934;DHT22;2482;49.154;8.254;2023-02-28T10:46:50;2.50;99.90
4934;DHT22;2482;49.154;8.254;2023-02-28T10:49:22;2.60;99.90
4934;DHT22;2482;49.154;8.254;2023-02-28T10:51:56;2.70;99.90
4934;DHT22;2482;49.154;8.254;2023-02-28T10:54:32;2.90;99.90
4934;DHT22;2482;49.154;8.254;2023-02-28T10:57:18;2.80;99.90
4934;DHT22;2482;49.154;8.254;2023-02-28T10:59:52;2.70;99.90
4934;DHT22;2482;49.154;8.254;2023-02-28T11:02:31;2.90;99.90
4934;DHT22;2482;49.154;8.254;2023-02-28T11:05:31;3.10;99.90
4934;DHT22;2482;49.154;8.254;2023-02-28T11:08:16;3.60;99.90
4934;DHT22;2482;49.154;8.254;2023-02-28T11:10:46;3.40;99.90
4934;DHT22;2482;49.154;8.254;2023-02-28T11:13:20;3.30;99.90
4934;DHT22;2482;49.154;8.254;2023-02-28T11:15:53;3.30;99.90
4934;DHT22;2482;49.154;8.254;2023-02-28T11:21:06;4.10;99.90
4934;DHT22;2482;49.154;8.254;2023-02-28T11:23:35;3.90;99.90
4934;DHT22;2482;49.154;8.254;2023-02-28T11:26:04;3.60;99.90
4934;DHT22;2482;49.154;8.254;2023-02-28T11:28:37;3.40;99.90
4934;DHT22;2482;49.154;8.254;2023-02-28T11:36:28;3.60;99.90
4934;DHT22;2482;49.154;8.254;2023-02-28T11:38:59;3.60;99.90
4934;DHT22;2482;49.154;8.254;2023-02-28T11:44:23;4.10;99.90
4934;DHT22;2482;49.154;8.254;2023-02-28T11:49:50;3.70;99.90
4934;DHT22;2482;49.154;8.254;2023-02-28T11:53:02;3.60;99.90
4934;DHT22;2482;49.154;8.254;2023-02-28T12:05:23;4.60;99.90
4934;DHT22;2482;49.154;8.254;2023-02-28T12:08:20;4.70;99.90
4934;DHT22;2482;49.154;8.254;2023-02-28T12:11:13;4.60;99.90
4934;DHT22;2482;49.154;8.254;2023-02-28T12:24:54;4.40;99.90
4934;DHT22;2482;49.154;8.254;2023-02-28T12:27:36;4.70;99.90
4934;DHT22;2482;49.154;8.254;2023-02-28T12:33:12;5.10;99.90
4934;DHT22;2482;49.154;8.254;2023-02-28T12:35:47;5.00;99.90
4934;DHT22;2482;49.154;8.254;2023-02-28T12:38:22;4.90;99.90
4934;DHT22;2482;49.154;8.254;2023-02-28T12:41:13;4.70;99.90
4934;DHT22;2482;49.154;8.254;2023-02-28T12:43:46;4.40;99.90
4934;DHT22;2482;49.154;8.254;2023-02-28T12:46:28;4.40;99.90
4934;DHT22;2482;49.154;8.254;2023-02-28T12:49:29;4.50;99.90
4934;DHT22;2482;49.154;8.254;2023-02-28T12:52:01;4.90;99.90
4934;DHT22;2482;49.154;8.254;2023-02-28T12:54:50;4.80;99.90
4934;DHT22;2482;49.154;8.254;2023-02-28T12:57:38;4.60;99.90
4934;DHT22;2482;49.154;8.254;2023-02-28T13:00:19;4.40;99.90
4934;DHT22;2482;49.154;8.254;2023-02-28T13:08:51;4.70;99.90
4934;DHT22;2482;49.154;8.254;2023-02-28T13:11:44;4.50;99.90
4934;DHT22;2482;49.154;8.254;2023-02-28T13:14:36;4.60;99.90
4934;DHT22;2482;49.154;8.254;2023-02-28T13:22:44;4.50;99.90
4934;DHT22;2482;49.154;8.254;2023-02-28T13:28:02;4.30;99.90
4934;DHT22;2482;49.154;8.254;2023-02-28T13:33:27;4.40;99.90
4934;DHT22;2482;49.154;8.254;2023-02-28T13:38:49;4.90;99.90
4934;DHT22;2482;49.154;8.254;2023-02-28T13:44:06;5.40;99.90
4934;DHT22;2482;49.154;8.254;2023-02-28T13:49:28;5.70;99.90
4934;DHT22;2482;49.154;8.254;2023-02-28T13:52:16;5.70;99.90
4934;DHT22;2482;49.154;8.254;2023-02-28T13:54:59;5.30;99.90
4934;DHT22;2482;49.154;8.254;2023-02-28T13:57:55;5.40;99.90
4934;DHT22;2482;49.154;8.254;2023-02-28T14:00:37;5.60;99.90
4934;DHT22;2482;49.154;8.254;2023-02-28T14:03:39;5.60;99.90
4934;DHT22;2482;49.154;8.254;2023-02-28T14:11:43;5.10;99.90
4934;DHT22;2482;49.154;8.254;2023-02-28T14:17:03;5.30;99.90
4934;DHT22;2482;49.154;8.254;2023-02-28T14:19:34;5.40;99.90
4934;DHT22;2482;49.154;8.254;2023-02-28T14:31:57;4.80;99.90
4934;DHT22;2482;49.154;8.254;2023-02-28T14:34:54;4.90;99.90
4934;DHT22;2482;49.154;8.254;2023-02-28T14:37:37;4.90;99.90
4934;DHT22;2482;49.154;8.254;2023-02-28T14:40:16;4.90;99.90
4934;DHT22;2482;49.154;8.254;2023-02-28T14:42:59;5.10;99.90
4934;DHT22;2482;49.154;8.254;2023-02-28T14:45:33;5.30;99.90
4934;DHT22;2482;49.154;8.254;2023-02-28T14:48:02;5.40;99.90
4934;DHT22;2482;49.154;8.254;2023-02-28T14:50:36;5.10;99.90
4934;DHT22;2482;49.154;8.254;2023-02-28T14:53:04;4.90;99.90
4934;DHT22;2482;49.154;8.254;2023-02-28T14:55:36;5.20;99.90
4934;DHT22;2482;49.154;8.254;2023-02-28T14:58:06;5.50;99.90
4934;DHT22;2482;49.154;8.254;2023-02-28T15:00:49;5.50;99.90
4934;DHT22;2482;49.154;8.254;2023-02-28T15:03:36;5.50;99.90
4934;DHT22;2482;49.154;8.254;2023-02-28T15:08:45;5.40;99.90
4934;DHT22;2482;49.154;8.254;2023-02-28T15:11:17;5.20;99.90
4934;DHT22;2482;49.154;8.254;2023-02-28T15:13:46;5.30;99.90
4934;DHT22;2482;49.154;8.254;2023-02-28T15:16:33;5.30;99.90
4934;DHT22;2482;49.154;8.254;2023-02-28T15:19:06;5.20;99.90
4934;DHT22;2482;49.154;8.254;2023-02-28T15:21:43;5.10;99.90
4934;DHT22;2482;49.154;8.254;2023-02-28T15:26:57;5.00;99.90
4934;DHT22;2482;49.154;8.254;2023-02-28T15:29:28;5.10;99.90
4934;DHT22;2482;49.154;8.254;2023-02-28T15:32:00;5.00;99.90
4934;DHT22;2482;49.154;8.254;2023-02-28T15:34:40;5.10;99.90
4934;DHT22;2482;49.154;8.254;2023-02-28T15:43:22;5.00;99.90
4934;DHT22;2482;49.154;8.254;2023-02-28T15:46:05;5.00;99.90
4934;DHT22;2482;49.154;8.254;2023-02-28T15:48:47;5.00;99.90
4934;DHT22;2482;49.154;8.254;2023-02-28T15:51:21;4.90;99.90
4934;DHT22;2482;49.154;8.254;2023-02-28T15:54:00;5.00;99.90
4934;DHT22;2482;49.154;8.254;2023-02-28T15:56:35;4.90;99.90
4934;DHT22;2482;49.154;8.254;2023-02-28T15:59:07;4.90;99.90
4934;DHT22;2482;49.154;8.254;2023-02-28T16:01:40;4.80;99.90
4934;DHT22;2482;49.154;8.254;2023-02-28T16:04:19;4.80;99.90
4934;DHT22;2482;49.154;8.254;2023-02-28T16:07:00;4.70;99.90
4934;DHT22;2482;49.154;8.254;2023-02-28T16:09:32;4.60;99.90
4934;DHT22;2482;49.154;8.254;2023-02-28T16:12:02;4.50;99.90
4934;DHT22;2482;49.154;8.254;2023-02-28T16:14:30;4.50;99.90
4934;DHT22;2482;49.154;8.254;2023-02-28T16:17:04;4.60;99.90
4934;DHT22;2482;49.154;8.254;2023-02-28T16:19:32;4.50;99.90
4934;DHT22;2482;49.154;8.254;2023-02-28T16:22:01;4.40;99.90
4934;DHT22;2482;49.154;8.254;2023-02-28T16:24:28;4.30;99.90
4934;DHT22;2482;49.154;8.254;2023-02-28T16:26:55;4.30;99.90
4934;DHT22;2482;49.154;8.254;2023-02-28T16:29:31;4.40;99.90
4934;DHT22;2482;49.154;8.254;2023-02-28T16:32:01;4.30;99.90
4934;DHT22;2482;49.154;8.254;2023-02-28T16:34:31;4.20;99.90
4934;DHT22;2482;49.154;8.254;2023-02-28T16:36:59;4.30;99.90
4934;DHT22;2482;49.154;8.254;2023-02-28T16:39:26;4.20;99.90
4934;DHT22;2482;49.154;8.254;2023-02-28T16:41:55;4.10;99.90
4934;DHT22;2482;49.154;8.254;2023-02-28T16:44:33;4.00;99.90
4934;DHT22;2482;49.154;8.254;2023-02-28T16:47:03;4.00;99.90
4934;DHT22;2482;49.154;8.254;2023-02-28T16:49:30;3.90;99.90
4934;DHT22;2482;49.154;8.254;2023-02-28T16:51:57;3.80;99.90
4934;DHT22;2482;49.154;8.254;2023-02-28T16:54:24;3.60;99.90
4934;DHT22;2482;49.154;8.254;2023-02-28T16:56:51;3.60;99.90
4934;DHT22;2482;49.154;8.254;2023-02-28T16:59:22;3.40;99.90
4934;DHT22;2482;49.154;8.254;2023-02-28T17:01:54;3.50;99.90
4934;DHT22;2482;49.154;8.254;2023-02-28T17:04:25;3.50;99.90
4934;DHT22;2482;49.154;8.254;2023-02-28T17:06:52;3.50;99.90
4934;DHT22;2482;49.154;8.254;2023-02-28T17:09:22;3.30;99.90
4934;DHT22;2482;49.154;8.254;2023-02-28T17:11:54;3.20;99.90
4934;DHT22;2482;49.154;8.254;2023-02-28T17:14:21;3.20;99.90
4934;DHT22;2482;49.154;8.254;2023-02-28T17:16:49;3.10;99.90
4934;DHT22;2482;49.154;8.254;2023-02-28T17:19:17;3.00;99.90
4934;DHT22;2482;49.154;8.254;2023-02-28T17:21:45;3.00;99.90
4934;DHT22;2482;49.154;8.254;2023-02-28T17:24:12;2.90;99.90
4934;DHT22;2482;49.154;8.254;2023-02-28T17:26:44;2.90;99.90
4934;DHT22;2482;49.154;8.254;2023-02-28T17:29:18;2.80;99.90
4934;DHT22;2482;49.154;8.254;2023-02-28T17:31:47;2.70;99.90
4934;DHT22;2482;49.154;8.254;2023-02-28T17:34:14;2.60;99.90
4934;DHT22;2482;49.154;8.254;2023-02-28T17:36:46;2.60;99.90
4934;DHT22;2482;49.154;8.254;2023-02-28T17:39:16;2.60;99.90
4934;DHT22;2482;49.154;8.254;2023-02-28T17:41:54;2.40;99.90
4934;DHT22;2482;49.154;8.254;2023-02-28T17:44:24;2.40;99.90
4934;DHT22;2482;49.154;8.254;2023-02-28T17:46:53;2.50;99.90
4934;DHT22;2482;49.154;8.254;2023-02-28T17:49:21;2.30;99.90
4934;DHT22;2482;49.154;8.254;2023-02-28T17:51:49;2.40;99.90
4934;DHT22;2482;49.154;8.254;2023-02-28T17:54:17;2.30;99.90
4934;DHT22;2482;49.154;8.254;2023-02-28T17:56:45;2.30;99.90
4934;DHT22;2482;49.154;8.254;2023-02-28T17:59:12;2.50;99.90
4934;DHT22;2482;49.154;8.254;2023-02-28T18:01:39;2.30;99.90
4934;DHT22;2482;49.154;8.254;2023-02-28T18:04:07;2.20;99.90
4934;DHT22;2482;49.154;8.254;2023-02-28T18:06:37;2.20;99.90
4934;DHT22;2482;49.154;8.254;2023-02-28T18:09:15;2.00;99.90
4934;DHT22;2482;49.154;8.254;2023-02-28T18:11:43;2.00;99.90
4934;DHT22;2482;49.154;8.254;2023-02-28T18:14:15;2.10;99.90
4934;DHT22;2482;49.154;8.254;2023-02-28T18:16:44;2.10;99.90
4934;DHT22;2482;49.154;8.254;2023-02-28T18:19:12;2.10;99.90
4934;DHT22;2482;49.154;8.254;2023-02-28T18:21:46;1.90;99.90
4934;DHT22;2482;49.154;8.254;2023-02-28T18:24:15;2.00;99.90
4934;DHT22;2482;49.154;8.254;2023-02-28T18:26:43;1.90;99.90
4934;DHT22;2482;49.154;8.254;2023-02-28T18:29:20;2.00;99.90
4934;DHT22;2482;49.154;8.254;2023-02-28T18:31:48;1.80;99.90
4934;DHT22;2482;49.154;8.254;2023-02-28T18:34:16;1.80;99.90
4934;DHT22;2482;49.154;8.254;2023-02-28T18:36:43;1.80;99.90
4934;DHT22;2482;49.154;8.254;2023-02-28T18:39:14;1.80;99.90
4934;DHT22;2482;49.154;8.254;2023-02-28T18:41:41;1.70;99.90
4934;DHT22;2482;49.154;8.254;2023-02-28T18:44:08;1.50;99.90
4934;DHT22;2482;49.154;8.254;2023-02-28T18:46:45;1.50;99.90
4934;DHT22;2482;49.154;8.254;2023-02-28T18:49:13;1.50;99.90
4934;DHT22;2482;49.154;8.254;2023-02-28T18:51:41;1.70;99.90
4934;DHT22;2482;49.154;8.254;2023-02-28T18:54:12;1.60;99.90
4934;DHT22;2482;49.154;8.254;2023-02-28T18:56:40;1.50;99.90
4934;DHT22;2482;49.154;8.254;2023-02-28T18:59:07;1.50;99.90
4934;DHT22;2482;49.154;8.254;2023-02-28T19:01:35;1.50;99.90
4934;DHT22;2482;49.154;8.254;2023-02-28T19:04:02;1.30;99.90